sensor_id;sensor_type;location;lat;lon;timestamp;pressure;altitude;pressure_sealevel;temperature;humidity
19736;BME280;32064;49.310;8.646;2023-02-02T00:00:49;101193.50;;;9.90;70.77
19736;BME280;32064;49.310;8.646;2023-02-02T00:03:15;101198.09;;;9.87;71.52
19736;BME280;32064;49.310;8.646;2023-02-02T00:05:50;101211.50;;;9.82;71.40
19736;BME280;32064;49.310;8.646;2023-02-02T00:08:17;101191.38;;;9.81;71.06
19736;BME280;32064;49.310;8.646;2023-02-02T00:10:43;101191.22;;;9.84;70.26
19736;BME280;32064;49.310;8.646;2023-02-02T00:13:10;101192.78;;;9.88;71.07
19736;BME280;32064;49.310;8.646;2023-02-02T00:15:35;101187.91;;;9.81;72.00
19736;BME280;32064;49.310;8.646;2023-02-02T00:18:01;101188.69;;;9.83;71.41
19736;BME280;32064;49.310;8.646;2023-02-02T00:20:27;101193.09;;;9.82;71.82
19736;BME280;32064;49.310;8.646;2023-02-02T00:22:53;101187.06;;;9.80;71.10
19736;BME280;32064;49.310;8.646;2023-02-02T00:25:19;101193.34;;;9.78;71.64
19736;BME280;32064;49.310;8.646;2023-02-02T00:27:44;101197.03;;;9.74;71.14
19736;BME280;32064;49.310;8.646;2023-02-02T00:30:10;101201.28;;;9.76;72.24
19736;BME280;32064;49.310;8.646;2023-02-02T00:32:36;101195.72;;;9.82;71.43
19736;BME280;32064;49.310;8.646;2023-02-02T00:35:01;101194.97;;;9.80;71.89
19736;BME280;32064;49.310;8.646;2023-02-02T00:37:27;101188.88;;;9.80;72.44
19736;BME280;32064;49.310;8.646;2023-02-02T00:39:52;101192.56;;;9.76;72.59
19736;BME280;32064;49.310;8.646;2023-02-02T00:42:17;101184.50;;;9.79;72.12
19736;BME280;32064;49.310;8.646;2023-02-02T00:44:43;101181.22;;;9.75;72.93
19736;BME280;32064;49.310;8.646;2023-02-02T00:47:27;101174.50;;;9.70;73.88
19736;BME280;32064;49.310;8.646;2023-02-02T00:49:52;101187.31;;;9.76;72.94
19736;BME280;32064;49.310;8.646;2023-02-02T00:52:18;101191.13;;;9.70;73.31
19736;BME280;32064;49.310;8.646;2023-02-02T00:54:43;101186.88;;;9.67;74.16
19736;BME280;32064;49.310;8.646;2023-02-02T00:57:12;101194.19;;;9.62;73.22
19736;BME280;32064;49.310;8.646;2023-02-02T00:59:38;101189.50;;;9.67;74.61
19736;BME280;32064;49.310;8.646;2023-02-02T01:02:04;101195.47;;;9.71;73.41
19736;BME280;32064;49.310;8.646;2023-02-02T01:04:29;101188.59;;;9.69;74.52
19736;BME280;32064;49.310;8.646;2023-02-02T01:06:55;101189.34;;;9.71;74.77
19736;BME280;32064;49.310;8.646;2023-02-02T01:09:20;101198.22;;;9.68;74.88
19736;BME280;32064;49.310;8.646;2023-02-02T01:11:46;101197.66;;;9.63;73.74
19736;BME280;32064;49.310;8.646;2023-02-02T01:14:11;101187.81;;;9.66;74.98
19736;BME280;32064;49.310;8.646;2023-02-02T01:16:37;101189.84;;;9.61;74.75
19736;BME280;32064;49.310;8.646;2023-02-02T01:19:02;101197.22;;;9.71;73.65
19736;BME280;32064;49.310;8.646;2023-02-02T01:21:29;101197.38;;;9.67;73.91
19736;BME280;32064;49.310;8.646;2023-02-02T01:23:55;101202.72;;;9.66;74.34
19736;BME280;32064;49.310;8.646;2023-02-02T01:26:20;101194.06;;;9.64;74.75
19736;BME280;32064;49.310;8.646;2023-02-02T01:28:45;101205.88;;;9.73;74.79
19736;BME280;32064;49.310;8.646;2023-02-02T01:31:14;101195.53;;;9.70;73.71
19736;BME280;32064;49.310;8.646;2023-02-02T01:33:40;101195.28;;;9.74;73.76
19736;BME280;32064;49.310;8.646;2023-02-02T01:36:12;101202.47;;;9.71;73.88
19736;BME280;32064;49.310;8.646;2023-02-02T01:38:37;101190.88;;;9.75;74.59
19736;BME280;32064;49.310;8.646;2023-02-02T01:41:03;101182.84;;;9.78;74.78
19736;BME280;32064;49.310;8.646;2023-02-02T01:43:49;101183.16;;;9.72;75.02
19736;BME280;32064;49.310;8.646;2023-02-02T01:46:24;101190.78;;;9.76;73.86
19736;BME280;32064;49.310;8.646;2023-02-02T01:48:58;101194.41;;;9.74;74.94
19736;BME280;32064;49.310;8.646;2023-02-02T01:51:29;101191.06;;;9.72;75.15
19736;BME280;32064;49.310;8.646;2023-02-02T01:53:58;101192.75;;;9.73;76.21
19736;BME280;32064;49.310;8.646;2023-02-02T01:56:31;101195.38;;;9.73;74.75
19736;BME280;32064;49.310;8.646;2023-02-02T01:58:58;101195.47;;;9.71;75.99
19736;BME280;32064;49.310;8.646;2023-02-02T02:01:25;101193.41;;;9.76;75.47
19736;BME280;32064;49.310;8.646;2023-02-02T02:03:51;101200.44;;;9.76;74.77
19736;BME280;32064;49.310;8.646;2023-02-02T02:06:17;101198.84;;;9.73;76.24
19736;BME280;32064;49.310;8.646;2023-02-02T02:08:53;101197.75;;;9.77;75.59
19736;BME280;32064;49.310;8.646;2023-02-02T02:11:20;101198.44;;;9.81;74.60
19736;BME280;32064;49.310;8.646;2023-02-02T02:13:46;101208.09;;;9.80;75.38
19736;BME280;32064;49.310;8.646;2023-02-02T02:22:49;101198.94;;;9.72;75.43
19736;BME280;32064;49.310;8.646;2023-02-02T02:26:14;101195.47;;;9.71;75.56
19736;BME280;32064;49.310;8.646;2023-02-02T02:34:38;101205.03;;;9.72;74.93
19736;BME280;32064;49.310;8.646;2023-02-02T02:37:12;101198.84;;;9.73;75.79
19736;BME280;32064;49.310;8.646;2023-02-02T02:42:19;101201.28;;;9.76;74.95
19736;BME280;32064;49.310;8.646;2023-02-02T02:44:46;101193.34;;;9.78;75.68
19736;BME280;32064;49.310;8.646;2023-02-02T02:47:13;101184.50;;;9.79;75.94
19736;BME280;32064;49.310;8.646;2023-02-02T02:49:46;101202.41;;;9.72;75.01
19736;BME280;32064;49.310;8.646;2023-02-02T02:52:13;101202.22;;;9.75;76.39
19736;BME280;32064;49.310;8.646;2023-02-02T02:54:52;101198.44;;;9.81;76.16
19736;BME280;32064;49.310;8.646;2023-02-02T02:59:59;101197.66;;;9.79;74.84
19736;BME280;32064;49.310;8.646;2023-02-02T03:08:06;101204.03;;;9.75;75.38
19736;BME280;32064;49.310;8.646;2023-02-02T03:10:34;101200.13;;;9.82;76.02
19736;BME280;32064;49.310;8.646;2023-02-02T03:13:06;101199.53;;;9.77;74.71
19736;BME280;32064;49.310;8.646;2023-02-02T03:15:32;101195.88;;;9.79;74.88
19736;BME280;32064;49.310;8.646;2023-02-02T03:17:57;101201.06;;;9.81;75.84
19736;BME280;32064;49.310;8.646;2023-02-02T03:20:22;101201.84;;;9.83;75.05
19736;BME280;32064;49.310;8.646;2023-02-02T03:22:48;101205.19;;;9.85;75.14
19736;BME280;32064;49.310;8.646;2023-02-02T03:25:13;101205.72;;;9.76;74.97
19736;BME280;32064;49.310;8.646;2023-02-02T03:27:40;101200.13;;;9.82;75.80
19736;BME280;32064;49.310;8.646;2023-02-02T03:30:08;101205.47;;;9.80;75.11
19736;BME280;32064;49.310;8.646;2023-02-02T03:32:35;101204.28;;;9.86;74.42
19736;BME280;32064;49.310;8.646;2023-02-02T03:35:00;101206.81;;;9.87;75.18
19736;BME280;32064;49.310;8.646;2023-02-02T03:37:26;101200.66;;;9.88;74.58
19736;BME280;32064;49.310;8.646;2023-02-02T03:39:51;101201.56;;;9.87;74.87
19736;BME280;32064;49.310;8.646;2023-02-02T03:42:17;101200.56;;;9.90;74.69
19736;BME280;32064;49.310;8.646;2023-02-02T03:44:42;101206.91;;;9.86;75.15
19736;BME280;32064;49.310;8.646;2023-02-02T03:47:07;101207.75;;;9.86;75.33
19736;BME280;32064;49.310;8.646;2023-02-02T03:49:33;101207.16;;;9.81;75.69
19736;BME280;32064;49.310;8.646;2023-02-02T03:51:58;101206.91;;;9.86;75.48
19736;BME280;32064;49.310;8.646;2023-02-02T03:54:24;101206.91;;;9.86;75.80
19736;BME280;32064;49.310;8.646;2023-02-02T03:56:49;101206.91;;;9.86;74.80
19736;BME280;32064;49.310;8.646;2023-02-02T03:59:14;101215.66;;;9.86;74.56
19736;BME280;32064;49.310;8.646;2023-02-02T04:01:40;101208.53;;;9.88;74.42
19736;BME280;32064;49.310;8.646;2023-02-02T04:04:05;101199.88;;;9.86;75.04
19736;BME280;32064;49.310;8.646;2023-02-02T04:06:30;101205.19;;;9.85;75.11
19736;BME280;32064;49.310;8.646;2023-02-02T04:08:56;101207.69;;;9.88;75.17
19736;BME280;32064;49.310;8.646;2023-02-02T04:11:21;101220.72;;;9.89;74.85
19736;BME280;32064;49.310;8.646;2023-02-02T04:13:46;101212.00;;;9.89;75.92
19736;BME280;32064;49.310;8.646;2023-02-02T04:16:12;101219.91;;;9.89;74.94
19736;BME280;32064;49.310;8.646;2023-02-02T04:18:37;101231.34;;;9.88;75.50
19736;BME280;32064;49.310;8.646;2023-02-02T04:21:04;101240.97;;;9.87;74.94
19736;BME280;32064;49.310;8.646;2023-02-02T04:23:30;101244.22;;;9.93;75.88
19736;BME280;32064;49.310;8.646;2023-02-02T04:25:57;101236.44;;;9.91;75.38
19736;BME280;32064;49.310;8.646;2023-02-02T04:28:23;101233.97;;;9.88;74.83
19736;BME280;32064;49.310;8.646;2023-02-02T04:30:50;101237.34;;;9.90;75.50
19736;BME280;32064;49.310;8.646;2023-02-02T04:33:15;101236.44;;;9.91;75.82
19736;BME280;32064;49.310;8.646;2023-02-02T04:35:42;101225.66;;;9.96;74.64
19736;BME280;32064;49.310;8.646;2023-02-02T04:38:08;101238.13;;;9.92;74.33
19736;BME280;32064;49.310;8.646;2023-02-02T04:40:37;101235.66;;;9.89;75.04
19736;BME280;32064;49.310;8.646;2023-02-02T04:43:03;101241.59;;;9.93;75.40
19736;BME280;32064;49.310;8.646;2023-02-02T04:45:28;101239.06;;;9.91;74.81
19736;BME280;32064;49.310;8.646;2023-02-02T04:47:53;101243.38;;;9.92;74.68
19736;BME280;32064;49.310;8.646;2023-02-02T04:50:19;101242.69;;;9.88;74.52
19736;BME280;32064;49.310;8.646;2023-02-02T04:52:44;101244.38;;;9.89;75.22
19736;BME280;32064;49.310;8.646;2023-02-02T04:55:09;101253.22;;;9.88;75.39
19736;BME280;32064;49.310;8.646;2023-02-02T04:57:35;101255.75;;;9.90;75.31
19736;BME280;32064;49.310;8.646;2023-02-02T05:00:00;101252.28;;;9.89;75.30
19736;BME280;32064;49.310;8.646;2023-02-02T05:02:25;101259.94;;;9.94;75.20
19736;BME280;32064;49.310;8.646;2023-02-02T05:04:51;101260.16;;;9.89;76.14
19736;BME280;32064;49.310;8.646;2023-02-02T05:07:16;101254.91;;;9.89;75.52
19736;BME280;32064;49.310;8.646;2023-02-02T05:09:42;101264.63;;;9.87;75.76
19736;BME280;32064;49.310;8.646;2023-02-02T05:12:07;101261.00;;;9.90;75.86
19736;BME280;32064;49.310;8.646;2023-02-02T05:14:32;101261.09;;;9.88;76.28
19736;BME280;32064;49.310;8.646;2023-02-02T05:16:58;101257.53;;;9.89;76.59
19736;BME280;32064;49.310;8.646;2023-02-02T05:19:23;101262.88;;;9.88;76.50
19736;BME280;32064;49.310;8.646;2023-02-02T05:21:48;101265.34;;;9.91;75.18
19736;BME280;32064;49.310;8.646;2023-02-02T05:24:14;101266.19;;;9.92;75.01
19736;BME280;32064;49.310;8.646;2023-02-02T05:26:39;101270.78;;;9.88;76.83
19736;BME280;32064;49.310;8.646;2023-02-02T05:29:05;101281.03;;;9.93;76.17
19736;BME280;32064;49.310;8.646;2023-02-02T05:31:33;101273.22;;;9.91;76.41
19736;BME280;32064;49.310;8.646;2023-02-02T05:33:59;101277.72;;;9.89;76.52
19736;BME280;32064;49.310;8.646;2023-02-02T05:36:27;101272.28;;;9.92;76.31
19736;BME280;32064;49.310;8.646;2023-02-02T05:38:53;101278.50;;;9.91;76.42
19736;BME280;32064;49.310;8.646;2023-02-02T05:41:18;101283.75;;;9.91;76.78
19736;BME280;32064;49.310;8.646;2023-02-02T05:43:43;101269.72;;;9.90;76.11
19736;BME280;32064;49.310;8.646;2023-02-02T05:46:09;101278.38;;;9.93;75.30
19736;BME280;32064;49.310;8.646;2023-02-02T05:48:35;101280.00;;;9.95;76.46
19736;BME280;32064;49.310;8.646;2023-02-02T05:53:30;101290.63;;;9.94;77.04
19736;BME280;32064;49.310;8.646;2023-02-02T05:55:55;101292.31;;;9.95;76.25
19736;BME280;32064;49.310;8.646;2023-02-02T05:58:21;101297.47;;;9.96;76.87
19736;BME280;32064;49.310;8.646;2023-02-02T06:00:46;101289.91;;;9.90;76.90
19736;BME280;32064;49.310;8.646;2023-02-02T06:03:12;101288.28;;;9.87;77.25
19736;BME280;32064;49.310;8.646;2023-02-02T06:05:38;101302.31;;;9.88;76.01
19736;BME280;32064;49.310;8.646;2023-02-02T06:08:03;101291.69;;;9.89;76.92
19736;BME280;32064;49.310;8.646;2023-02-02T06:10:29;101296.94;;;9.89;76.85
19736;BME280;32064;49.310;8.646;2023-02-02T06:12:56;101299.34;;;9.94;77.12
19736;BME280;32064;49.310;8.646;2023-02-02T06:15:21;101294.41;;;9.88;75.90
19736;BME280;32064;49.310;8.646;2023-02-02T06:17:47;101297.78;;;9.90;76.58
19736;BME280;32064;49.310;8.646;2023-02-02T06:20:12;101286.38;;;9.91;75.52
19736;BME280;32064;49.310;8.646;2023-02-02T06:22:38;101294.25;;;9.91;76.63
19736;BME280;32064;49.310;8.646;2023-02-02T06:25:03;101290.06;;;9.87;75.98
19736;BME280;32064;49.310;8.646;2023-02-02T06:27:30;101294.72;;;9.82;77.32
19736;BME280;32064;49.310;8.646;2023-02-02T06:29:55;101288.56;;;9.83;75.90
19736;BME280;32064;49.310;8.646;2023-02-02T06:32:21;101298.06;;;9.85;76.93
19736;BME280;32064;49.310;8.646;2023-02-02T06:34:46;101303.16;;;9.88;75.69
19736;BME280;32064;49.310;8.646;2023-02-02T06:37:12;101288.28;;;9.87;76.91
19736;BME280;32064;49.310;8.646;2023-02-02T06:39:37;101304.00;;;9.89;75.61
19736;BME280;32064;49.310;8.646;2023-02-02T06:42:03;101302.31;;;9.88;75.57
19736;BME280;32064;49.310;8.646;2023-02-02T06:44:28;101305.06;;;9.85;77.08
19736;BME280;32064;49.310;8.646;2023-02-02T06:46:53;101301.84;;;9.80;76.29
19736;BME280;32064;49.310;8.646;2023-02-02T06:49:19;101297.34;;;9.82;76.57
19736;BME280;32064;49.310;8.646;2023-02-02T06:51:46;101311.19;;;9.85;77.10
19736;BME280;32064;49.310;8.646;2023-02-02T06:54:12;101316.34;;;9.87;77.18
19736;BME280;32064;49.310;8.646;2023-02-02T06:56:38;101312.09;;;9.84;76.53
19736;BME280;32064;49.310;8.646;2023-02-02T06:59:03;101314.56;;;9.87;76.25
19736;BME280;32064;49.310;8.646;2023-02-02T07:01:28;101305.94;;;9.85;77.13
19736;BME280;32064;49.310;8.646;2023-02-02T07:03:54;101313.44;;;9.76;76.84
19736;BME280;32064;49.310;8.646;2023-02-02T07:06:22;101313.66;;;9.88;76.46
19736;BME280;32064;49.310;8.646;2023-02-02T07:08:49;101327.81;;;9.86;77.51
19736;BME280;32064;49.310;8.646;2023-02-02T07:11:15;101313.50;;;9.92;75.93
19736;BME280;32064;49.310;8.646;2023-02-02T07:13:42;101321.22;;;9.95;75.58
19736;BME280;32064;49.310;8.646;2023-02-02T07:16:08;101317.81;;;9.93;77.34
19736;BME280;32064;49.310;8.646;2023-02-02T07:18:34;101322.91;;;9.96;77.48
19736;BME280;32064;49.310;8.646;2023-02-02T07:21:01;101335.03;;;9.98;75.56
19736;BME280;32064;49.310;8.646;2023-02-02T07:23:27;101327.16;;;9.98;75.72
19736;BME280;32064;49.310;8.646;2023-02-02T07:26:00;101332.50;;;9.97;76.38
19736;BME280;32064;49.310;8.646;2023-02-02T07:28:26;101328.94;;;9.98;77.07
19736;BME280;32064;49.310;8.646;2023-02-02T07:30:52;101327.78;;;10.03;77.37
19736;BME280;32064;49.310;8.646;2023-02-02T07:33:17;101332.34;;;10.00;75.93
19736;BME280;32064;49.310;8.646;2023-02-02T07:35:42;101330.47;;;10.02;76.85
19736;BME280;32064;49.310;8.646;2023-02-02T07:38:08;101335.72;;;10.02;76.41
19736;BME280;32064;49.310;8.646;2023-02-02T07:40:33;101337.59;;;10.00;77.34
19736;BME280;32064;49.310;8.646;2023-02-02T07:42:59;101344.50;;;10.02;76.18
19736;BME280;32064;49.310;8.646;2023-02-02T07:45:26;101359.25;;;10.05;76.16
19736;BME280;32064;49.310;8.646;2023-02-02T07:47:56;101354.00;;;10.05;75.68
19736;BME280;32064;49.310;8.646;2023-02-02T07:50:21;101359.16;;;10.06;77.35
19736;BME280;32064;49.310;8.646;2023-02-02T07:52:47;101365.19;;;10.08;75.68
19736;BME280;32064;49.310;8.646;2023-02-02T07:55:12;101371.34;;;10.07;76.98
19736;BME280;32064;49.310;8.646;2023-02-02T07:57:38;101369.59;;;10.08;76.47
19736;BME280;32064;49.310;8.646;2023-02-02T08:00:04;101374.75;;;10.09;75.53
19736;BME280;32064;49.310;8.646;2023-02-02T08:02:29;101377.16;;;10.14;76.24
19736;BME280;32064;49.310;8.646;2023-02-02T08:04:54;101377.06;;;10.16;76.24
19736;BME280;32064;49.310;8.646;2023-02-02T08:07:20;101377.69;;;10.21;76.93
19736;BME280;32064;49.310;8.646;2023-02-02T08:09:49;101378.28;;;10.26;76.61
19736;BME280;32064;49.310;8.646;2023-02-02T08:12:15;101370.28;;;10.29;77.36
19736;BME280;32064;49.310;8.646;2023-02-02T08:14:40;101368.72;;;10.25;76.87
19736;BME280;32064;49.310;8.646;2023-02-02T08:17:06;101371.97;;;10.30;75.94
19736;BME280;32064;49.310;8.646;2023-02-02T08:19:32;101364.63;;;10.37;77.08
19736;BME280;32064;49.310;8.646;2023-02-02T08:21:57;101372.41;;;10.38;75.49
19736;BME280;32064;49.310;8.646;2023-02-02T08:24:22;101376.66;;;10.41;76.11
19736;BME280;32064;49.310;8.646;2023-02-02T08:26:48;101379.13;;;10.44;77.19
19736;BME280;32064;49.310;8.646;2023-02-02T08:29:13;101387.94;;;10.43;75.19
19736;BME280;32064;49.310;8.646;2023-02-02T08:31:43;101386.00;;;10.46;75.12
19736;BME280;32064;49.310;8.646;2023-02-02T08:34:10;101392.09;;;10.47;76.06
19736;BME280;32064;49.310;8.646;2023-02-02T08:36:35;101387.94;;;10.43;76.70
19736;BME280;32064;49.310;8.646;2023-02-02T08:39:03;101380.06;;;10.43;75.12
19736;BME280;32064;49.310;8.646;2023-02-02T08:41:29;101380.50;;;10.51;74.86
19736;BME280;32064;49.310;8.646;2023-02-02T08:43:54;101376.41;;;10.61;75.17
19736;BME280;32064;49.310;8.646;2023-02-02T08:46:20;101381.44;;;10.66;74.62
19736;BME280;32064;49.310;8.646;2023-02-02T08:48:46;101381.44;;;10.66;74.17
19736;BME280;32064;49.310;8.646;2023-02-02T08:51:13;101385.88;;;10.65;75.00
19736;BME280;32064;49.310;8.646;2023-02-02T08:53:40;101382.28;;;10.66;75.56
19736;BME280;32064;49.310;8.646;2023-02-02T08:56:18;101382.72;;;10.74;75.63
19736;BME280;32064;49.310;8.646;2023-02-02T08:58:45;101382.13;;;10.85;74.44
19736;BME280;32064;49.310;8.646;2023-02-02T09:01:17;101383.50;;;10.76;73.30
19736;BME280;32064;49.310;8.646;2023-02-02T09:03:43;101387.56;;;10.82;74.78
19736;BME280;32064;49.310;8.646;2023-02-02T09:06:11;101400.56;;;10.85;73.35
19736;BME280;32064;49.310;8.646;2023-02-02T09:08:37;101386.56;;;10.85;73.96
19736;BME280;32064;49.310;8.646;2023-02-02T09:11:10;101396.63;;;10.92;74.68
19736;BME280;32064;49.310;8.646;2023-02-02T09:13:37;101392.41;;;11.06;72.21
19736;BME280;32064;49.310;8.646;2023-02-02T09:16:05;101397.06;;;11.16;72.81
19736;BME280;32064;49.310;8.646;2023-02-02T09:18:31;101404.31;;;11.13;72.21
19736;BME280;32064;49.310;8.646;2023-02-02T09:21:01;101404.97;;;11.16;73.72
19736;BME280;32064;49.310;8.646;2023-02-02T09:23:35;101401.50;;;11.16;72.78
19736;BME280;32064;49.310;8.646;2023-02-02T09:26:19;101408.56;;;11.15;71.65
19736;BME280;32064;49.310;8.646;2023-02-02T09:28:50;101393.84;;;11.11;72.87
19736;BME280;32064;49.310;8.646;2023-02-02T09:31:16;101401.75;;;11.11;72.07
19736;BME280;32064;49.310;8.646;2023-02-02T09:33:42;101394.34;;;11.18;71.88
19736;BME280;32064;49.310;8.646;2023-02-02T09:36:10;101398.56;;;11.20;71.91
19736;BME280;32064;49.310;8.646;2023-02-02T09:38:37;101404.53;;;11.24;70.95
19736;BME280;32064;49.310;8.646;2023-02-02T09:50:05;101395.88;;;11.22;72.48
19736;BME280;32064;49.310;8.646;2023-02-02T09:52:20;101400.66;;;11.15;71.94
19736;BME280;32064;49.310;8.646;2023-02-02T09:54:49;101395.44;;;11.30;72.78
19736;BME280;32064;49.310;8.646;2023-02-02T09:57:32;101397.91;;;11.33;71.01
19736;BME280;32064;49.310;8.646;2023-02-02T10:00:01;101403.59;;;11.41;72.53
19736;BME280;32064;49.310;8.646;2023-02-02T10:02:36;101410.63;;;11.40;71.98
19736;BME280;32064;49.310;8.646;2023-02-02T10:05:14;101401.09;;;11.38;71.33
19736;BME280;32064;49.310;8.646;2023-02-02T10:07:44;101401.19;;;11.36;70.27
19736;BME280;32064;49.310;8.646;2023-02-02T10:13:05;101403.31;;;11.45;71.24
19736;BME280;32064;49.310;8.646;2023-02-02T10:18:33;101419.75;;;11.65;71.63
19736;BME280;32064;49.310;8.646;2023-02-02T10:21:01;101417.53;;;11.73;70.13
19736;BME280;32064;49.310;8.646;2023-02-02T10:23:34;101428.06;;;11.73;69.47
19736;BME280;32064;49.310;8.646;2023-02-02T10:26:15;101427.22;;;11.73;70.63
19736;BME280;32064;49.310;8.646;2023-02-02T10:31:23;101440.06;;;11.63;71.28
19736;BME280;32064;49.310;8.646;2023-02-02T10:34:01;101436.94;;;11.56;69.86
19736;BME280;32064;49.310;8.646;2023-02-02T10:44:56;101440.47;;;11.41;70.89
19736;BME280;32064;49.310;8.646;2023-02-02T10:47:28;101445.75;;;11.41;70.64
19736;BME280;32064;49.310;8.646;2023-02-02T10:50:21;101442.69;;;11.33;70.34
19736;BME280;32064;49.310;8.646;2023-02-02T10:52:51;101442.59;;;11.34;70.39
19736;BME280;32064;49.310;8.646;2023-02-02T10:58:10;101456.63;;;11.19;71.45
19736;BME280;32064;49.310;8.646;2023-02-02T11:00:45;101450.34;;;11.21;72.09
19736;BME280;32064;49.310;8.646;2023-02-02T11:03:16;101455.44;;;11.24;70.43
19736;BME280;32064;49.310;8.646;2023-02-02T11:05:44;101455.44;;;11.24;71.04
19736;BME280;32064;49.310;8.646;2023-02-02T11:08:54;101455.19;;;11.13;70.94
19736;BME280;32064;49.310;8.646;2023-02-02T11:11:38;101452.19;;;11.19;69.80
19736;BME280;32064;49.310;8.646;2023-02-02T11:16:34;101450.25;;;11.23;70.28
19736;BME280;32064;49.310;8.646;2023-02-02T11:19:00;101453.03;;;11.20;70.80
19736;BME280;32064;49.310;8.646;2023-02-02T11:21:31;101452.13;;;11.21;69.97
19736;BME280;32064;49.310;8.646;2023-02-02T11:23:58;101459.94;;;11.22;70.45
19736;BME280;32064;49.310;8.646;2023-02-02T11:26:26;101449.22;;;11.26;70.30
19736;BME280;32064;49.310;8.646;2023-02-02T11:28:53;101451.78;;;11.27;71.76
19736;BME280;32064;49.310;8.646;2023-02-02T11:31:29;101454.41;;;11.27;71.57
19736;BME280;32064;49.310;8.646;2023-02-02T11:34:09;101448.56;;;11.22;70.50
19736;BME280;32064;49.310;8.646;2023-02-02T11:36:34;101451.59;;;11.30;69.81
19736;BME280;32064;49.310;8.646;2023-02-02T11:39:20;101444.63;;;11.29;70.89
19736;BME280;32064;49.310;8.646;2023-02-02T11:41:46;101452.22;;;11.35;69.24
19736;BME280;32064;49.310;8.646;2023-02-02T11:44:24;101450.84;;;11.28;71.14
19736;BME280;32064;49.310;8.646;2023-02-02T11:46:51;101440.97;;;11.32;70.11
19736;BME280;32064;49.310;8.646;2023-02-02T11:49:19;101441.81;;;11.32;69.89
19736;BME280;32064;49.310;8.646;2023-02-02T11:52:04;101449.22;;;11.26;69.48
19736;BME280;32064;49.310;8.646;2023-02-02T11:54:31;101450.00;;;11.28;71.19
19736;BME280;32064;49.310;8.646;2023-02-02T11:57:03;101448.97;;;11.30;71.27
19736;BME280;32064;49.310;8.646;2023-02-02T11:59:37;101439.88;;;11.36;70.60
19736;BME280;32064;49.310;8.646;2023-02-02T12:02:22;101436.28;;;11.37;70.83
19736;BME280;32064;49.310;8.646;2023-02-02T12:04:50;101435.19;;;11.41;69.61
19736;BME280;32064;49.310;8.646;2023-02-02T12:07:31;101440.63;;;11.38;69.10
19736;BME280;32064;49.310;8.646;2023-02-02T12:10:10;101436.88;;;11.42;69.52
19736;BME280;32064;49.310;8.646;2023-02-02T12:17:45;101434.06;;;11.45;69.22
19736;BME280;32064;49.310;8.646;2023-02-02T12:25:45;101428.72;;;11.46;69.85
19736;BME280;32064;49.310;8.646;2023-02-02T12:31:32;101416.28;;;11.49;68.48
19736;BME280;32064;49.310;8.646;2023-02-02T12:37:07;101408.97;;;11.54;68.18
19736;BME280;32064;49.310;8.646;2023-02-02T13:03:59;101389.94;;;11.95;67.33
19736;BME280;32064;49.310;8.646;2023-02-02T13:09:38;101394.47;;;12.07;68.87
19736;BME280;32064;49.310;8.646;2023-02-02T13:12:10;101393.91;;;12.16;66.51
19736;BME280;32064;49.310;8.646;2023-02-02T13:14:44;101401.34;;;12.09;68.24
19736;BME280;32064;49.310;8.646;2023-02-02T13:17:18;101404.19;;;12.21;67.53
19736;BME280;32064;49.310;8.646;2023-02-02T13:19:51;101412.00;;;12.22;66.57
19736;BME280;32064;49.310;8.646;2023-02-02T13:22:21;101413.13;;;12.18;66.83
19736;BME280;32064;49.310;8.646;2023-02-02T13:24:50;101407.84;;;12.18;67.25
19736;BME280;32064;49.310;8.646;2023-02-02T13:27:20;101405.78;;;12.23;67.11
19736;BME280;32064;49.310;8.646;2023-02-02T13:29:56;101403.16;;;12.23;67.54
19736;BME280;32064;49.310;8.646;2023-02-02T13:32:35;101420.09;;;12.19;67.00
19736;BME280;32064;49.310;8.646;2023-02-02T13:37:38;101426.41;;;12.17;66.97
19736;BME280;32064;49.310;8.646;2023-02-02T13:42:52;101429.88;;;12.17;65.87
19736;BME280;32064;49.310;8.646;2023-02-02T13:45:32;101421.69;;;12.22;67.84
19736;BME280;32064;49.310;8.646;2023-02-02T13:50:44;101430.25;;;12.25;66.44
19736;BME280;32064;49.310;8.646;2023-02-02T14:01:56;101442.16;;;12.18;66.51
19736;BME280;32064;49.310;8.646;2023-02-02T14:04:28;101442.50;;;12.12;67.57
19736;BME280;32064;49.310;8.646;2023-02-02T14:06:59;101450.72;;;12.22;67.13
19736;BME280;32064;49.310;8.646;2023-02-02T14:09:34;101453.16;;;12.25;67.58
19736;BME280;32064;49.310;8.646;2023-02-02T14:12:04;101454.59;;;12.30;66.97
19736;BME280;32064;49.310;8.646;2023-02-02T14:14:32;101453.75;;;12.30;67.16
19736;BME280;32064;49.310;8.646;2023-02-02T14:19:59;101462.03;;;12.24;67.12
19736;BME280;32064;49.310;8.646;2023-02-02T14:22:43;101460.78;;;12.15;66.18
19736;BME280;32064;49.310;8.646;2023-02-02T14:25:45;101457.00;;;12.05;67.64
19736;BME280;32064;49.310;8.646;2023-02-02T14:28:39;101459.94;;;12.00;66.54
19736;BME280;32064;49.310;8.646;2023-02-02T14:33:42;101475.56;;;12.03;66.78
19736;BME280;32064;49.310;8.646;2023-02-02T14:36:13;101479.31;;;11.99;66.12
19736;BME280;32064;49.310;8.646;2023-02-02T14:38:48;101476.66;;;11.99;67.62
19736;BME280;32064;49.310;8.646;2023-02-02T14:41:45;101490.03;;;11.96;67.11
19736;BME280;32064;49.310;8.646;2023-02-02T14:44:32;101498.97;;;11.94;66.37
19736;BME280;32064;49.310;8.646;2023-02-02T14:47:01;101495.56;;;11.91;67.92
19736;BME280;32064;49.310;8.646;2023-02-02T14:49:31;101505.59;;;11.85;67.02
19736;BME280;32064;49.310;8.646;2023-02-02T14:52:00;101502.81;;;11.88;68.09
19736;BME280;32064;49.310;8.646;2023-02-02T14:54:29;101501.91;;;11.89;67.01
19736;BME280;32064;49.310;8.646;2023-02-02T14:56:59;101502.28;;;11.81;66.94
19736;BME280;32064;49.310;8.646;2023-02-02T14:59:31;101506.53;;;11.84;67.00
19736;BME280;32064;49.310;8.646;2023-02-02T15:02:19;101506.97;;;11.76;68.05
19736;BME280;32064;49.310;8.646;2023-02-02T15:04:46;101513.88;;;11.79;68.25
19736;BME280;32064;49.310;8.646;2023-02-02T15:08:20;101514.13;;;11.74;67.45